Time;durP1;ratioP1;P1;durP2;ratioP2;P2;SDS_P1;SDS_P2;PMS_P1;PMS_P2;Temp;Humidity;BMP_temperature;BMP_pressure;BME280_temperature;BME280_humidity;BME280_pressure;Samples;Min_cycle;Max_cycle;Signal;HPM_P1;HPM_P2
2022/03/01 00:02:18;;;;;;;14.73;11.38;;;3.60;49.70;;;;;;5095316;28;20290;-56
2022/03/01 00:04:45;;;;;;;16.17;11.30;;;3.50;49.10;;;;;;5093744;28;20724;-56
2022/03/01 00:07:11;;;;;;;15.50;12.15;;;3.50;49.50;;;;;;5095108;28;20234;-56
2022/03/01 00:09:38;;;;;;;16.15;13.02;;;3.50;49.00;;;;;;5094994;28;20654;-56
2022/03/01 00:12:06;;;;;;;14.07;12.55;;;3.50;49.20;;;;;;5094974;28;20650;-56
2022/03/01 00:14:33;;;;;;;16.40;12.77;;;3.50;49.00;;;;;;5094980;28;20206;-56
2022/03/01 00:17:01;;;;;;;14.43;11.95;;;3.40;50.00;;;;;;5095169;28;20291;-56
2022/03/01 00:19:29;;;;;;;18.35;12.30;;;3.40;50.10;;;;;;5093914;28;20204;-56
2022/03/01 00:21:56;;;;;;;13.07;11.30;;;3.40;50.60;;;;;;5094775;28;20674;-57
2022/03/01 00:24:23;;;;;;;15.18;12.32;;;3.20;50.80;;;;;;5094757;28;20199;-57
2022/03/01 00:26:50;;;;;;;16.67;12.88;;;3.10;51.40;;;;;;5094651;28;20216;-57
2022/03/01 00:29:17;;;;;;;16.73;12.85;;;3.00;50.90;;;;;;5094683;28;20200;-57
2022/03/01 00:31:44;;;;;;;16.27;12.02;;;3.10;51.10;;;;;;5094394;28;20206;-57
2022/03/01 00:34:11;;;;;;;18.33;11.90;;;3.20;51.00;;;;;;5094381;28;20299;-56
2022/03/01 00:36:39;;;;;;;17.13;12.10;;;3.20;50.70;;;;;;5093130;28;20231;-57
2022/03/01 00:39:06;;;;;;;15.98;12.50;;;3.20;51.20;;;;;;5094391;28;20291;-56
2022/03/01 00:41:33;;;;;;;14.27;12.65;;;3.20;51.30;;;;;;5094460;28;20296;-57
2022/03/01 00:44:00;;;;;;;15.60;11.57;;;3.10;52.00;;;;;;5094356;28;20210;-57
2022/03/01 00:46:27;;;;;;;20.17;13.45;;;3.00;52.00;;;;;;5094403;28;20206;-57
2022/03/01 00:48:54;;;;;;;16.52;12.38;;;3.00;51.40;;;;;;5094336;28;20329;-57
2022/03/01 00:51:21;;;;;;;15.88;12.05;;;3.10;51.40;;;;;;5092863;28;20204;-57
2022/03/01 00:53:50;;;;;;;15.10;12.10;;;3.00;51.80;;;;;;5094288;28;20208;-57
2022/03/01 00:56:17;;;;;;;15.98;12.00;;;2.90;52.90;;;;;;5094216;28;20295;-57
2022/03/01 00:58:44;;;;;;;15.90;12.02;;;2.90;53.00;;;;;;5094135;28;20203;-57
2022/03/01 01:01:11;;;;;;;14.15;12.65;;;2.90;52.90;;;;;;5094007;28;20203;-57
2022/03/01 01:03:38;;;;;;;17.00;12.43;;;2.80;52.50;;;;;;5093994;28;20228;-57
2022/03/01 01:06:05;;;;;;;16.63;11.57;;;2.70;53.20;;;;;;5092504;28;20215;-57
2022/03/01 01:08:33;;;;;;;14.10;12.05;;;2.70;53.90;;;;;;5093732;28;20598;-57
2022/03/01 01:11:01;;;;;;;17.17;13.60;;;2.70;53.70;;;;;;5093958;28;20228;-57
2022/03/01 01:13:29;;;;;;;13.45;11.95;;;2.70;52.90;;;;;;5093893;28;20204;-57
2022/03/01 01:15:56;;;;;;;16.40;12.63;;;2.80;53.50;;;;;;5093777;28;20204;-56
2022/03/01 01:18:23;;;;;;;18.20;12.18;;;2.80;52.70;;;;;;5093848;28;20662;-58
2022/03/01 01:20:50;;;;;;;14.07;11.88;;;2.80;54.00;;;;;;5092032;28;20211;-56
2022/03/01 01:23:17;;;;;;;14.43;11.82;;;2.80;53.80;;;;;;5093644;28;20210;-57
2022/03/01 01:25:43;;;;;;;15.73;12.10;;;2.70;53.70;;;;;;5093700;28;20257;-56
2022/03/01 01:28:12;;;;;;;15.77;12.25;;;2.70;54.10;;;;;;5093590;28;20315;-57
2022/03/01 01:30:39;;;;;;;15.40;12.30;;;2.70;53.90;;;;;;5093496;28;20208;-57
2022/03/01 01:33:06;;;;;;;16.02;12.25;;;2.70;53.50;;;;;;5093375;28;20200;-57
2022/03/01 01:35:34;;;;;;;13.95;12.10;;;2.70;53.40;;;;;;5092023;28;20214;-56
2022/03/01 01:38:01;;;;;;;13.52;12.13;;;2.60;54.20;;;;;;5093366;28;20310;-57
2022/03/01 01:40:31;;;;;;;15.55;13.07;;;2.50;55.60;;;;;;5093482;28;20196;-57
2022/03/01 01:42:59;;;;;;;16.73;12.38;;;2.20;56.40;;;;;;5092762;28;20210;-57
2022/03/01 01:45:27;;;;;;;15.00;11.95;;;1.90;57.50;;;;;;5093311;28;20196;-57
2022/03/01 01:47:56;;;;;;;15.02;12.20;;;1.60;58.60;;;;;;5093153;28;20238;-57
2022/03/01 01:50:24;;;;;;;17.02;12.80;;;1.40;59.20;;;;;;5091814;28;20286;-57
2022/03/01 01:52:53;;;;;;;18.33;13.27;;;1.30;59.90;;;;;;5093257;28;20253;-56
2022/03/01 01:55:21;;;;;;;15.35;11.98;;;1.20;60.20;;;;;;5093056;28;20202;-56
2022/03/01 01:57:48;;;;;;;15.57;12.57;;;1.40;58.70;;;;;;5093283;28;20362;-57
2022/03/01 02:00:16;;;;;;;16.20;12.93;;;1.50;59.20;;;;;;5092929;28;20303;-57
2022/03/01 02:02:45;;;;;;;17.60;13.23;;;1.60;58.60;;;;;;5092926;28;20200;-57
2022/03/01 02:05:12;;;;;;;15.52;11.85;;;1.80;58.20;;;;;;5091534;28;20203;-56
2022/03/01 02:07:45;;;;;;;13.82;11.85;;;1.90;57.10;;;;;;5092924;28;20227;-56
2022/03/01 02:10:13;;;;;;;17.83;13.15;;;1.90;57.30;;;;;;5093035;28;20210;-57
2022/03/01 02:12:39;;;;;;;18.77;12.60;;;2.00;57.00;;;;;;5092971;28;20200;-57
2022/03/01 02:15:08;;;;;;;17.50;13.25;;;2.10;56.70;;;;;;5092950;28;20295;-57
2022/03/01 02:17:35;;;;;;;18.17;12.77;;;2.20;57.00;;;;;;5092914;28;20200;-57
2022/03/01 02:20:17;;;;;;;16.75;12.77;;;2.30;56.10;;;;;;5091443;28;20608;-56
2022/03/01 02:22:44;;;;;;;16.30;12.93;;;2.30;56.90;;;;;;5093005;28;20200;-57
2022/03/01 02:25:11;;;;;;;13.73;11.93;;;2.30;56.50;;;;;;5092926;28;20560;-56
2022/03/01 02:27:38;;;;;;;17.75;13.13;;;2.30;55.90;;;;;;5092725;28;20226;-57
2022/03/01 02:30:07;;;;;;;15.20;12.65;;;2.20;56.80;;;;;;5092823;28;20204;-57
2022/03/01 02:32:35;;;;;;;15.45;12.48;;;2.20;56.80;;;;;;5092803;28;20200;-56
2022/03/01 02:35:02;;;;;;;16.77;12.95;;;2.30;56.10;;;;;;5091273;28;20204;-57
2022/03/01 02:37:30;;;;;;;13.73;12.27;;;2.20;56.30;;;;;;5092681;28;20220;-57
2022/03/01 02:39:58;;;;;;;15.27;13.50;;;2.20;57.10;;;;;;5092672;28;20239;-57
2022/03/01 02:42:27;;;;;;;14.40;12.73;;;2.10;57.50;;;;;;5092348;28;20207;-57
2022/03/01 02:44:54;;;;;;;14.32;11.95;;;2.00;57.60;;;;;;5092169;28;20200;-57
2022/03/01 02:47:21;;;;;;;15.55;13.63;;;1.90;57.00;;;;;;5092076;28;20210;-56
2022/03/01 02:49:49;;;;;;;19.92;13.68;;;2.00;56.80;;;;;;5090688;28;20200;-56
2022/03/01 02:52:16;;;;;;;17.52;15.27;;;2.00;56.70;;;;;;5092136;28;20667;-57
2022/03/01 02:54:44;;;;;;;15.88;12.88;;;2.10;56.60;;;;;;5093728;28;20287;-57
2022/03/01 02:57:11;;;;;;;16.67;12.65;;;2.10;57.00;;;;;;5095996;28;20244;-57
2022/03/01 02:59:38;;;;;;;14.77;12.35;;;2.00;57.40;;;;;;5095904;28;20226;-57
2022/03/01 03:02:05;;;;;;;16.80;13.32;;;1.90;58.00;;;;;;5095967;28;20207;-56
2022/03/01 03:04:32;;;;;;;17.60;13.25;;;1.80;58.20;;;;;;5094313;28;20240;-56
2022/03/01 03:06:59;;;;;;;13.82;12.38;;;1.70;58.70;;;;;;5095706;28;20204;-56
2022/03/01 03:09:26;;;;;;;15.13;12.80;;;1.80;57.50;;;;;;5095727;28;20323;-57
2022/03/01 03:11:54;;;;;;;16.77;13.55;;;1.80;57.80;;;;;;5095643;28;20210;-56
2022/03/01 03:14:21;;;;;;;15.10;13.50;;;1.90;58.10;;;;;;5095804;28;20315;-56
2022/03/01 03:16:48;;;;;;;13.45;11.93;;;1.90;58.50;;;;;;5095835;28;20290;-57
2022/03/01 03:19:16;;;;;;;17.92;12.55;;;1.80;58.50;;;;;;5095673;28;20310;-57
2022/03/01 03:21:44;;;;;;;16.65;13.07;;;1.80;58.20;;;;;;5093924;28;20212;-56
2022/03/01 03:24:11;;;;;;;17.48;13.35;;;1.70;58.70;;;;;;5095590;28;20215;-56
2022/03/01 03:26:39;;;;;;;15.82;12.77;;;1.70;58.70;;;;;;5095506;28;20243;-57
2022/03/01 03:29:09;;;;;;;16.27;12.65;;;1.60;58.50;;;;;;5095265;28;20223;-56
2022/03/01 03:31:37;;;;;;;16.85;13.88;;;1.60;58.80;;;;;;5095314;28;20203;-56
2022/03/01 03:34:04;;;;;;;15.68;12.10;;;1.60;59.10;;;;;;5095238;28;20214;-57
2022/03/01 03:36:34;;;;;;;15.55;13.68;;;1.50;60.40;;;;;;5093717;28;20311;-56
2022/03/01 03:39:01;;;;;;;15.63;12.60;;;1.50;59.50;;;;;;5095307;28;20204;-57
2022/03/01 03:41:28;;;;;;;14.50;12.65;;;1.60;59.50;;;;;;5095155;28;20200;-57
2022/03/01 03:43:54;;;;;;;15.00;12.95;;;1.60;59.30;;;;;;5095009;28;20670;-56
2022/03/01 03:46:23;;;;;;;15.20;12.82;;;1.70;58.70;;;;;;5095067;28;20210;-56
2022/03/01 03:48:49;;;;;;;16.90;13.45;;;1.60;59.80;;;;;;5094810;28;20270;-56
2022/03/01 03:51:16;;;;;;;15.90;13.20;;;1.60;59.20;;;;;;5093543;28;20291;-57
2022/03/01 03:53:43;;;;;;;14.57;12.82;;;1.60;58.50;;;;;;5094945;28;20239;-56
2022/03/01 03:56:10;;;;;;;12.65;11.50;;;1.60;59.40;;;;;;5094930;28;20261;-56
2022/03/01 03:58:37;;;;;;;14.35;12.07;;;1.50;59.40;;;;;;5094896;28;20210;-56
2022/03/01 04:01:04;;;;;;;13.88;11.73;;;1.40;59.70;;;;;;5094852;28;20308;-56
2022/03/01 04:03:33;;;;;;;13.77;12.23;;;1.50;59.60;;;;;;5094536;28;20315;-56
2022/03/01 04:06:00;;;;;;;15.48;12.43;;;1.50;59.50;;;;;;5092636;28;20204;-56
2022/03/01 04:08:27;;;;;;;16.15;12.80;;;1.50;59.10;;;;;;5094553;28;20718;-56
2022/03/01 04:10:55;;;;;;;14.48;12.98;;;1.50;59.30;;;;;;5094693;28;20204;-57
2022/03/01 04:13:22;;;;;;;17.52;12.00;;;1.50;58.60;;;;;;5094636;28;20673;-56
2022/03/01 04:15:48;;;;;;;14.55;12.70;;;1.60;58.40;;;;;;5094492;28;20693;-57
2022/03/01 04:18:15;;;;;;;15.43;11.57;;;1.70;58.00;;;;;;5094448;28;20200;-56
2022/03/01 04:20:44;;;;;;;15.52;11.65;;;1.70;58.40;;;;;;5093024;28;20284;-56
2022/03/01 04:23:13;;;;;;;14.88;12.45;;;1.60;58.60;;;;;;5094427;28;20280;-56
2022/03/01 04:25:40;;;;;;;14.43;12.30;;;1.60;58.50;;;;;;5094447;28;20600;-56
2022/03/01 04:28:07;;;;;;;14.35;12.65;;;1.60;58.30;;;;;;5094191;28;20228;-56
2022/03/01 04:30:34;;;;;;;14.57;11.25;;;1.60;57.80;;;;;;5094066;28;20223;-56
2022/03/01 04:33:01;;;;;;;14.88;13.30;;;1.60;58.50;;;;;;5094110;28;20200;-57
2022/03/01 04:35:28;;;;;;;16.80;12.63;;;1.50;58.70;;;;;;5092618;28;20220;-56
2022/03/01 04:37:57;;;;;;;17.60;11.77;;;1.50;58.90;;;;;;5094248;28;20207;-56
2022/03/01 04:40:23;;;;;;;15.43;13.75;;;1.40;58.80;;;;;;5094015;28;20199;-56
2022/03/01 04:42:50;;;;;;;13.68;12.25;;;1.40;58.50;;;;;;5093938;28;20210;-56
2022/03/01 04:45:17;;;;;;;16.80;12.60;;;1.40;58.80;;;;;;5093886;28;20454;-56
2022/03/01 04:47:44;;;;;;;17.23;12.85;;;1.30;58.80;;;;;;5093882;28;20208;-57
2022/03/01 04:50:12;;;;;;;14.95;13.05;;;1.30;58.90;;;;;;5092332;28;20290;-56
2022/03/01 04:52:39;;;;;;;15.23;12.57;;;1.30;59.30;;;;;;5093759;28;20199;-56
2022/03/01 04:55:10;;;;;;;15.13;12.70;;;1.30;58.80;;;;;;5093705;28;20218;-56
2022/03/01 04:57:37;;;;;;;16.27;12.27;;;1.30;58.70;;;;;;5093518;28;20204;-56
2022/03/01 05:00:10;;;;;;;15.50;11.27;;;1.10;59.00;;;;;;5093586;28;20299;-56
2022/03/01 05:02:38;;;;;;;15.15;10.82;;;1.00;59.10;;;;;;5093432;28;20211;-56
2022/03/01 05:05:10;;;;;;;16.98;11.73;;;1.00;59.90;;;;;;5092105;28;20584;-56
2022/03/01 05:07:37;;;;;;;15.75;12.82;;;0.90;59.70;;;;;;5093466;28;20936;-57
2022/03/01 05:10:07;;;;;;;14.90;13.30;;;0.90;59.70;;;;;;5093295;28;20316;-56
2022/03/01 05:12:41;;;;;;;17.52;13.40;;;0.90;60.00;;;;;;5093278;28;20207;-56
2022/03/01 05:15:09;;;;;;;12.13;10.30;;;0.90;59.40;;;;;;5093347;28;20387;-57
2022/03/01 05:17:36;;;;;;;17.42;10.82;;;0.90;60.30;;;;;;5092511;28;20702;-56
2022/03/01 05:20:04;;;;;;;17.75;13.02;;;0.90;60.30;;;;;;5091759;28;20200;-56
2022/03/01 05:22:31;;;;;;;16.70;13.30;;;0.90;59.70;;;;;;5093161;28;20204;-56
2022/03/01 05:24:58;;;;;;;17.33;13.18;;;1.00;60.00;;;;;;5093225;28;20204;-56
2022/03/01 05:27:26;;;;;;;16.48;12.70;;;1.00;59.60;;;;;;5093093;28;20240;-56
2022/03/01 05:29:53;;;;;;;15.40;12.18;;;1.00;59.50;;;;;;5093103;28;20242;-56
2022/03/01 05:32:20;;;;;;;16.75;13.35;;;0.90;59.90;;;;;;5093040;28;20231;-56
2022/03/01 05:34:47;;;;;;;16.25;11.82;;;1.00;59.60;;;;;;5091610;28;20636;-56
2022/03/01 05:37:14;;;;;;;18.05;12.23;;;0.90;60.00;;;;;;5092786;28;20304;-56
2022/03/01 05:39:40;;;;;;;14.68;11.88;;;0.90;59.90;;;;;;5092894;28;20239;-56
2022/03/01 05:42:09;;;;;;;17.40;12.60;;;0.90;59.80;;;;;;5092945;28;20287;-56
2022/03/01 05:44:37;;;;;;;15.88;12.90;;;0.80;60.30;;;;;;5092928;28;20200;-56
2022/03/01 05:47:07;;;;;;;18.90;13.88;;;0.70;60.30;;;;;;5092571;28;20243;-56
2022/03/01 05:49:34;;;;;;;14.05;11.50;;;0.60;60.80;;;;;;5091343;28;20241;-56
2022/03/01 05:52:01;;;;;;;17.42;12.65;;;0.70;60.90;;;;;;5092404;28;20210;-56
2022/03/01 05:54:28;;;;;;;16.40;14.18;;;0.60;60.90;;;;;;5092649;28;20196;-56
2022/03/01 05:56:55;;;;;;;14.98;13.10;;;0.60;60.70;;;;;;5092622;28;20195;-56
2022/03/01 05:59:22;;;;;;;15.05;10.75;;;0.60;60.90;;;;;;5092498;28;20231;-56
2022/03/01 06:01:50;;;;;;;18.10;13.77;;;0.50;61.80;;;;;;5092562;28;20206;-56
2022/03/01 06:04:17;;;;;;;16.50;12.40;;;0.50;61.90;;;;;;5092420;28;20323;-56
2022/03/01 06:06:44;;;;;;;15.20;13.60;;;0.60;61.50;;;;;;5090994;28;20203;-56
2022/03/01 06:09:11;;;;;;;14.80;11.90;;;0.60;61.50;;;;;;5092336;28;20246;-56
2022/03/01 06:11:38;;;;;;;19.35;14.60;;;0.60;60.90;;;;;;5092427;28;20210;-56
2022/03/01 06:14:05;;;;;;;15.40;13.00;;;0.60;60.80;;;;;;5092415;28;20219;-56
2022/03/01 06:16:31;;;;;;;18.55;13.68;;;0.60;60.90;;;;;;5092304;28;20758;-56
2022/03/01 06:19:00;;;;;;;16.95;10.57;;;0.60;61.30;;;;;;5092263;28;20302;-56
2022/03/01 06:21:27;;;;;;;14.82;11.55;;;0.60;60.80;;;;;;5090858;28;20246;-56
2022/03/01 06:23:55;;;;;;;18.90;15.23;;;0.70;60.70;;;;;;5092350;28;20211;-56
2022/03/01 06:26:22;;;;;;;17.88;13.63;;;0.70;60.70;;;;;;5092490;28;20196;-56
2022/03/01 06:28:51;;;;;;;19.08;12.95;;;0.70;60.60;;;;;;5092469;28;20232;-56
2022/03/01 06:31:17;;;;;;;14.98;13.02;;;0.60;60.30;;;;;;5096347;28;20204;-56
2022/03/01 06:33:44;;;;;;;15.35;13.60;;;0.70;60.10;;;;;;5096623;28;20296;-55
2022/03/01 06:36:13;;;;;;;21.40;13.77;;;0.80;60.40;;;;;;5095117;28;20306;-56
2022/03/01 06:38:40;;;;;;;16.38;11.88;;;0.80;60.40;;;;;;5096590;28;20658;-56
2022/03/01 06:41:06;;;;;;;18.10;12.90;;;0.80;60.30;;;;;;5096517;28;20215;-56
2022/03/01 06:43:34;;;;;;;16.45;12.77;;;0.80;60.10;;;;;;5096569;28;20203;-56
2022/03/01 06:46:01;;;;;;;14.90;11.98;;;0.80;60.20;;;;;;5096475;28;20286;-56
2022/03/01 06:48:28;;;;;;;17.55;14.00;;;0.80;60.20;;;;;;5096575;28;20200;-56
2022/03/01 06:50:55;;;;;;;16.27;13.32;;;0.80;60.40;;;;;;5095105;28;20233;-56
2022/03/01 06:53:23;;;;;;;15.85;14.15;;;0.80;60.30;;;;;;5096282;28;20290;-56
2022/03/01 06:55:50;;;;;;;16.98;13.95;;;0.80;60.50;;;;;;5096315;28;20231;-55
2022/03/01 06:58:16;;;;;;;21.15;14.70;;;0.90;60.70;;;;;;5096279;28;20291;-56
2022/03/01 07:00:44;;;;;;;15.77;13.93;;;0.90;60.20;;;;;;5096193;28;20298;-55
2022/03/01 07:03:11;;;;;;;17.17;13.00;;;0.90;60.70;;;;;;5096061;28;20322;-56
2022/03/01 07:05:38;;;;;;;19.65;12.93;;;0.90;60.40;;;;;;5094738;28;20196;-56
2022/03/01 07:08:05;;;;;;;19.08;13.30;;;0.90;60.30;;;;;;5096140;28;20294;-56
2022/03/01 07:10:33;;;;;;;13.90;10.90;;;1.00;59.70;;;;;;5095946;28;20238;-56
2022/03/01 07:13:00;;;;;;;15.60;13.00;;;1.10;59.70;;;;;;5095967;28;20204;-56
2022/03/01 07:15:27;;;;;;;16.13;12.73;;;1.10;59.10;;;;;;5095916;28;20282;-56
2022/03/01 07:17:54;;;;;;;19.38;14.02;;;1.10;59.10;;;;;;5095975;28;20196;-56
2022/03/01 07:20:21;;;;;;;17.92;12.20;;;1.10;59.50;;;;;;5094460;28;20238;-56
2022/03/01 07:22:47;;;;;;;18.38;13.00;;;1.00;59.90;;;;;;5095736;28;20200;-56
2022/03/01 07:25:15;;;;;;;17.05;13.45;;;1.00;59.30;;;;;;5095874;28;20200;-56
2022/03/01 07:27:49;;;;;;;17.17;13.05;;;1.10;59.20;;;;;;5095725;28;20200;-56
2022/03/01 07:30:16;;;;;;;15.35;10.25;;;1.10;59.30;;;;;;5095573;28;20274;-56
2022/03/01 07:32:43;;;;;;;16.13;13.18;;;1.20;59.00;;;;;;5095599;28;20290;-56
2022/03/01 07:35:11;;;;;;;15.13;11.10;;;1.20;59.00;;;;;;5094306;28;20699;-56
2022/03/01 07:37:38;;;;;;;16.83;13.30;;;1.20;59.30;;;;;;5095458;28;20218;-56
2022/03/01 07:40:08;;;;;;;16.83;12.27;;;1.20;58.70;;;;;;5095518;28;20279;-56
2022/03/01 07:42:35;;;;;;;17.23;15.13;;;1.30;58.30;;;;;;5094485;28;20204;-56
2022/03/01 07:45:03;;;;;;;18.38;13.07;;;1.30;57.90;;;;;;5095326;28;20208;-56
2022/03/01 07:47:31;;;;;;;14.50;11.63;;;1.40;57.60;;;;;;5095437;28;20261;-56
2022/03/01 07:49:58;;;;;;;15.77;11.52;;;1.50;57.50;;;;;;5094017;28;20224;-56
2022/03/01 07:52:25;;;;;;;15.18;13.20;;;1.50;57.40;;;;;;5095119;28;20261;-56
2022/03/01 07:54:53;;;;;;;17.85;13.85;;;1.40;57.80;;;;;;5095130;28;20204;-56
2022/03/01 07:57:20;;;;;;;15.20;13.68;;;1.50;57.40;;;;;;5095179;28;20295;-57
2022/03/01 07:59:47;;;;;;;15.45;11.80;;;1.50;57.10;;;;;;5095199;28;20212;-56
2022/03/01 08:02:16;;;;;;;15.23;12.25;;;1.50;56.90;;;;;;5095162;28;20295;-56
2022/03/01 08:04:42;;;;;;;15.00;13.50;;;1.50;57.30;;;;;;5093614;28;20238;-56
2022/03/01 08:07:10;;;;;;;15.20;12.20;;;1.60;56.90;;;;;;5094694;28;20692;-56
2022/03/01 08:09:37;;;;;;;15.20;12.70;;;1.60;56.60;;;;;;5094731;28;20224;-56
2022/03/01 08:12:05;;;;;;;17.55;13.40;;;1.70;56.50;;;;;;5094915;28;20734;-56
2022/03/01 08:14:32;;;;;;;15.93;13.40;;;1.70;55.80;;;;;;5094896;28;20283;-56
2022/03/01 08:16:59;;;;;;;16.60;14.40;;;1.70;56.50;;;;;;5094863;28;20218;-56
2022/03/01 08:19:28;;;;;;;16.40;11.20;;;1.80;56.60;;;;;;5094624;28;20208;-56
2022/03/01 08:21:55;;;;;;;16.52;13.52;;;1.90;56.20;;;;;;5094170;28;20294;-56
2022/03/01 08:24:22;;;;;;;15.63;11.88;;;1.90;55.90;;;;;;5094595;28;20214;-56
2022/03/01 08:26:49;;;;;;;13.95;12.55;;;1.90;55.80;;;;;;5094667;28;20235;-56
2022/03/01 08:29:16;;;;;;;18.85;12.20;;;2.10;55.60;;;;;;5094502;28;20200;-56
2022/03/01 08:31:43;;;;;;;15.52;13.30;;;2.10;55.20;;;;;;5094601;28;20299;-56
2022/03/01 08:34:10;;;;;;;15.38;13.88;;;2.20;54.90;;;;;;5094359;28;20223;-56
2022/03/01 08:36:38;;;;;;;16.48;12.48;;;2.30;54.80;;;;;;5093076;28;20200;-56
2022/03/01 08:39:05;;;;;;;14.75;12.63;;;2.30;53.90;;;;;;5094463;28;20287;-56
2022/03/01 08:41:32;;;;;;;15.90;14.10;;;2.30;53.60;;;;;;5094380;28;20208;-56
2022/03/01 08:43:59;;;;;;;15.93;14.32;;;2.30;53.80;;;;;;5094339;28;20291;-57
2022/03/01 08:46:26;;;;;;;15.60;12.43;;;2.30;54.60;;;;;;5094190;28;20295;-56
2022/03/01 08:48:53;;;;;;;17.60;13.57;;;2.40;54.90;;;;;;5094230;28;20239;-57
2022/03/01 08:51:21;;;;;;;14.90;12.25;;;2.50;54.70;;;;;;5092566;28;20231;-56
2022/03/01 08:53:51;;;;;;;17.75;15.48;;;2.50;54.80;;;;;;5094004;28;20203;-56
2022/03/01 08:56:18;;;;;;;19.05;14.90;;;2.60;54.70;;;;;;5094081;28;20200;-56
2022/03/01 08:58:46;;;;;;;14.57;13.18;;;2.70;54.70;;;;;;5094238;28;20291;-56
2022/03/01 09:01:22;;;;;;;15.15;13.60;;;2.80;53.80;;;;;;5094027;28;20210;-56
2022/03/01 09:03:49;;;;;;;16.95;14.35;;;2.80;53.70;;;;;;5093555;28;20716;-56
2022/03/01 09:06:16;;;;;;;19.55;14.45;;;2.90;54.10;;;;;;5092603;28;20210;-57
2022/03/01 09:08:42;;;;;;;17.00;15.20;;;2.80;53.40;;;;;;5093860;28;20206;-56
2022/03/01 09:11:11;;;;;;;16.25;14.60;;;2.70;53.30;;;;;;5093741;28;20326;-56
2022/03/01 09:13:39;;;;;;;20.27;14.65;;;2.80;53.70;;;;;;5093805;28;20204;-56
2022/03/01 09:16:06;;;;;;;16.48;14.85;;;2.80;54.00;;;;;;5093721;28;20212;-56
2022/03/01 09:18:34;;;;;;;15.40;13.60;;;2.90;53.50;;;;;;5093587;28;20211;-56
2022/03/01 09:21:01;;;;;;;18.38;14.75;;;3.00;53.40;;;;;;5092203;28;20650;-56
2022/03/01 09:23:28;;;;;;;17.65;13.80;;;3.00;53.60;;;;;;5093610;28;20204;-56
2022/03/01 09:25:55;;;;;;;16.05;12.68;;;3.00;53.10;;;;;;5093670;28;20621;-56
2022/03/01 09:28:23;;;;;;;16.33;13.38;;;3.10;52.50;;;;;;5093364;28;20200;-56
2022/03/01 09:30:50;;;;;;;16.55;13.43;;;3.10;51.80;;;;;;5093287;28;20271;-55
2022/03/01 09:33:17;;;;;;;17.73;13.98;;;3.10;52.50;;;;;;5093349;28;20646;-55
2022/03/01 09:35:44;;;;;;;15.35;13.65;;;3.20;52.30;;;;;;5091939;28;20204;-56
2022/03/01 09:38:11;;;;;;;14.32;12.75;;;3.30;53.00;;;;;;5093309;28;20196;-57
2022/03/01 09:40:37;;;;;;;14.45;12.95;;;3.40;52.30;;;;;;5093215;28;20223;-56
2022/03/01 09:43:04;;;;;;;16.45;14.80;;;3.40;51.60;;;;;;5093400;28;20208;-56
2022/03/01 09:45:33;;;;;;;16.58;14.35;;;3.50;52.30;;;;;;5093104;28;20211;-56
2022/03/01 09:48:00;;;;;;;16.85;12.93;;;3.70;50.30;;;;;;5093270;28;20212;-57
2022/03/01 09:50:29;;;;;;;15.50;13.88;;;3.70;49.40;;;;;;5091830;28;20318;-57
2022/03/01 09:52:56;;;;;;;14.40;13.00;;;3.60;50.30;;;;;;5092858;28;20215;-56
2022/03/01 09:55:23;;;;;;;15.50;13.85;;;3.70;50.80;;;;;;5093185;28;20265;-56
2022/03/01 09:57:50;;;;;;;13.52;12.30;;;3.90;50.30;;;;;;5093137;28;20211;-57
2022/03/01 10:00:18;;;;;;;15.48;13.60;;;4.00;50.40;;;;;;5092896;28;20242;-57
2022/03/01 10:02:47;;;;;;;16.77;14.60;;;4.10;50.10;;;;;;5092735;28;20291;-56
2022/03/01 10:05:15;;;;;;;18.35;15.23;;;4.10;49.90;;;;;;5091212;28;20605;-57
2022/03/01 10:07:44;;;;;;;15.88;14.20;;;4.20;50.30;;;;;;5092823;28;20603;-57
2022/03/01 10:10:16;;;;;;;14.57;13.02;;;4.10;48.40;;;;;;5092745;28;20322;-57
2022/03/01 10:12:44;;;;;;;16.92;13.25;;;4.20;49.00;;;;;;5092536;28;20215;-56
2022/03/01 10:15:13;;;;;;;15.13;13.52;;;4.20;48.80;;;;;;5092922;28;20204;-57
2022/03/01 10:17:43;;;;;;;14.75;13.18;;;4.30;49.30;;;;;;5092769;28;20303;-57
2022/03/01 10:20:13;;;;;;;14.43;12.15;;;4.50;49.90;;;;;;5091294;28;20636;-57
2022/03/01 10:22:44;;;;;;;15.80;14.25;;;4.60;47.80;;;;;;5092563;28;20221;-57
2022/03/01 10:25:12;;;;;;;16.60;14.98;;;4.50;47.80;;;;;;5092568;28;20203;-57
2022/03/01 10:27:39;;;;;;;16.45;14.75;;;4.60;48.10;;;;;;5092732;28;20208;-57
2022/03/01 10:30:08;;;;;;;15.73;14.25;;;4.80;48.60;;;;;;5092570;28;20811;-57
2022/03/01 10:32:35;;;;;;;15.45;14.05;;;4.90;45.50;;;;;;5092541;28;20586;-57
2022/03/01 10:35:06;;;;;;;16.63;13.88;;;4.70;46.30;;;;;;5091284;28;20208;-57
2022/03/01 10:37:36;;;;;;;15.38;13.77;;;4.60;47.60;;;;;;5092417;28;20532;-57
2022/03/01 10:40:15;;;;;;;13.45;12.10;;;4.80;47.80;;;;;;5092441;28;20232;-57
2022/03/01 10:42:42;;;;;;;16.10;14.70;;;5.00;46.90;;;;;;5092516;28;20242;-57
2022/03/01 10:45:10;;;;;;;13.63;12.23;;;5.30;45.90;;;;;;5092495;28;20284;-57
2022/03/01 10:47:38;;;;;;;18.27;15.10;;;5.40;44.60;;;;;;5092603;28;20612;-56
2022/03/01 10:50:07;;;;;;;16.08;14.45;;;5.30;44.40;;;;;;5090928;28;20236;-56
2022/03/01 10:52:39;;;;;;;13.82;12.48;;;5.50;45.10;;;;;;5092330;28;20196;-57
2022/03/01 10:55:07;;;;;;;16.50;14.23;;;5.70;45.20;;;;;;5092416;28;20258;-57
2022/03/01 10:57:33;;;;;;;14.82;13.57;;;5.50;44.00;;;;;;5092488;28;20204;-57
2022/03/01 11:00:00;;;;;;;14.43;13.23;;;5.60;45.60;;;;;;5092202;28;20235;-57
2022/03/01 11:02:27;;;;;;;15.43;13.98;;;5.80;45.50;;;;;;5092436;28;20203;-56
2022/03/01 11:04:54;;;;;;;15.80;14.20;;;6.10;43.80;;;;;;5090756;28;20319;-57
2022/03/01 11:07:25;;;;;;;15.25;13.65;;;6.30;45.00;;;;;;5092163;28;20287;-57
2022/03/01 11:09:56;;;;;;;15.02;13.55;;;6.60;43.70;;;;;;5092253;28;20291;-57
2022/03/01 11:12:24;;;;;;;14.75;13.45;;;6.60;42.00;;;;;;5092252;28;20232;-57
2022/03/01 11:15:02;;;;;;;15.07;13.68;;;6.80;44.00;;;;;;5092282;28;20208;-57
2022/03/01 11:17:41;;;;;;;14.82;13.00;;;7.00;42.80;;;;;;5095260;28;20219;-57
2022/03/01 11:20:12;;;;;;;15.13;13.70;;;7.00;41.80;;;;;;5094773;28;20705;-57
2022/03/01 11:22:45;;;;;;;15.48;13.88;;;7.10;41.90;;;;;;5095824;28;20665;-58
2022/03/01 11:25:19;;;;;;;14.93;13.45;;;7.20;38.90;;;;;;5095918;28;20739;-57
2022/03/01 11:27:49;;;;;;;14.15;12.63;;;7.50;38.00;;;;;;5095832;28;20286;-56
2022/03/01 11:30:17;;;;;;;14.82;13.48;;;9.20;40.20;;;;;;5095749;28;20287;-59
2022/03/01 11:32:46;;;;;;;15.52;14.10;;;11.90;37.70;;;;;;5095568;28;20224;-59
2022/03/01 11:35:19;;;;;;;14.52;13.23;;;14.20;33.40;;;;;;5094572;28;20243;-59
2022/03/01 11:37:46;;;;;;;15.48;14.00;;;16.50;32.10;;;;;;5095544;28;20243;-59
2022/03/01 11:40:23;;;;;;;15.85;14.32;;;18.80;30.90;;;;;;5095546;28;20196;-58
2022/03/01 11:42:51;;;;;;;16.67;15.30;;;20.80;28.70;;;;;;5095525;28;20689;-58
2022/03/01 11:45:18;;;;;;;17.03;15.73;;;22.10;26.30;;;;;;5095526;28;20795;-58
2022/03/01 11:47:45;;;;;;;17.97;16.27;;;22.90;24.40;;;;;;5095463;28;20473;-58
2022/03/01 11:50:15;;;;;;;13.30;12.20;;;23.60;24.70;;;;;;5094050;28;20898;-58
2022/03/01 11:52:55;;;;;;;13.13;11.93;;;24.10;23.70;;;;;;5095284;28;20532;-57
2022/03/01 11:55:24;;;;;;;14.60;13.20;;;24.20;22.10;;;;;;5095429;28;20804;-57
2022/03/01 11:57:52;;;;;;;15.17;13.87;;;24.20;21.70;;;;;;5095311;28;20439;-57
2022/03/01 12:00:25;;;;;;;16.63;15.13;;;24.50;19.70;;;;;;5095444;28;20454;-58
2022/03/01 12:02:52;;;;;;;16.90;15.40;;;24.40;19.50;;;;;;5095086;28;20921;-58
2022/03/01 12:05:23;;;;;;;17.37;15.77;;;24.00;19.80;;;;;;5093587;28;20945;-57
2022/03/01 12:07:52;;;;;;;16.67;15.37;;;23.40;20.60;;;;;;5094944;28;20457;-58
2022/03/01 12:10:25;;;;;;;17.63;16.17;;;22.50;19.30;;;;;;5095037;28;20454;-61
2022/03/01 12:12:55;;;;;;;16.40;15.00;;;21.60;19.60;;;;;;5095062;28;20457;-58
2022/03/01 12:15:30;;;;;;;15.97;14.53;;;20.70;21.80;;;;;;5095023;28;20442;-59
2022/03/01 12:17:58;;;;;;;17.20;15.60;;;20.30;20.10;;;;;;5094796;28;20446;-59
2022/03/01 12:20:26;;;;;;;15.57;14.27;;;19.30;19.40;;;;;;5093689;28;20537;-59
2022/03/01 12:22:58;;;;;;;16.00;14.57;;;17.90;21.90;;;;;;5094695;28;20218;-59
2022/03/01 12:25:27;;;;;;;15.73;14.50;;;17.20;22.50;;;;;;5094898;28;20446;-59
2022/03/01 12:27:55;;;;;;;15.35;13.88;;;16.30;22.90;;;;;;5094150;28;20206;-59
2022/03/01 12:30:24;;;;;;;15.65;14.35;;;15.90;23.20;;;;;;5094364;28;20204;-59
2022/03/01 12:32:56;;;;;;;14.80;13.60;;;15.40;23.40;;;;;;5094428;28;20224;-58
2022/03/01 12:35:24;;;;;;;14.77;13.48;;;14.70;24.80;;;;;;5093319;28;20307;-59
2022/03/01 12:37:52;;;;;;;17.30;15.90;;;14.40;25.30;;;;;;5094303;28;20247;-59
2022/03/01 12:40:28;;;;;;;16.77;15.50;;;14.10;26.00;;;;;;5094419;28;20200;-58